createdAt,value
2022-09-01T00:00:54.989Z,7.13
2022-09-01T00:06:57.482Z,6.82
2022-09-01T00:19:02.766Z,6.32
2022-09-01T00:25:06.779Z,7.80
2022-09-01T00:31:11.495Z,7.40
2022-09-01T00:37:13.962Z,7.97
2022-09-01T00:49:27.919Z,6.68
2022-09-01T00:55:33.511Z,6.60
2022-09-01T01:01:37.147Z,6.95
2022-09-01T01:07:42.721Z,6.63
2022-09-01T01:13:59.195Z,7.22
2022-09-01T01:20:20.368Z,6.32
2022-09-01T01:26:23.172Z,7.20
2022-09-01T01:32:25.767Z,7.80
2022-09-01T01:38:29.170Z,6.50
2022-09-01T01:44:32.619Z,5.90
2022-09-01T01:50:38.432Z,6.40
2022-09-01T01:56:42.205Z,6.30
2022-09-01T02:02:49.441Z,6.60
2022-09-01T02:08:59.432Z,6.90
2022-09-01T02:15:02.972Z,6.47
2022-09-01T02:21:13.886Z,6.57
2022-09-01T02:27:23.597Z,6.50
2022-09-01T02:33:28.787Z,7.00
2022-09-01T02:39:34.891Z,6.38
2022-09-01T02:45:37.780Z,7.10
2022-09-01T02:51:40.070Z,6.80
2022-09-01T02:57:42.425Z,6.43
2022-09-01T03:09:47.111Z,6.95
2022-09-01T03:15:50.558Z,7.07
2022-09-01T03:21:53.040Z,6.03
2022-09-01T03:28:03.460Z,6.70
2022-09-01T03:34:06.988Z,6.82
2022-09-01T03:40:16.366Z,6.18
2022-09-01T03:46:22.182Z,6.07
2022-09-01T03:52:30.392Z,6.60
2022-09-01T03:58:32.897Z,7.10
2022-09-01T04:04:36.545Z,6.43
2022-09-01T04:17:05.474Z,6.82
2022-09-01T04:23:11.379Z,8.00
2022-09-01T04:29:13.933Z,7.30
2022-09-01T04:35:17.375Z,6.95
2022-09-01T04:41:26.298Z,7.28
2022-09-01T04:47:35.716Z,6.97
2022-09-01T04:53:48.994Z,6.32
2022-09-01T04:59:52.188Z,6.57
2022-09-01T05:05:54.596Z,7.25
2022-09-01T05:12:00.109Z,6.93
2022-09-01T05:18:10.304Z,7.10
2022-09-01T05:24:19.470Z,5.57
2022-09-01T05:30:21.793Z,6.45
2022-09-01T05:36:24.513Z,6.70
2022-09-01T05:42:30.247Z,13.60
2022-09-01T05:48:35.372Z,6.32
2022-09-01T05:54:38.307Z,6.65
2022-09-01T06:00:43.030Z,5.68
2022-09-01T06:07:06.368Z,5.10
2022-09-01T06:13:16.196Z,5.95
2022-09-01T06:19:21.247Z,5.30
2022-09-01T06:25:24.229Z,7.38
2022-09-01T06:31:34.244Z,6.30
2022-09-01T06:37:46.395Z,6.25
2022-09-01T06:44:01.790Z,5.68
2022-09-01T06:50:08.840Z,5.28
2022-09-01T06:56:13.683Z,5.93
2022-09-01T07:02:18.865Z,6.20
2022-09-01T07:21:42.374Z,5.32
2022-09-01T07:28:00.362Z,5.30
2022-09-01T07:47:20.314Z,5.38
2022-09-01T07:53:40.558Z,7.63
2022-09-01T07:59:47.775Z,4.55
2022-09-01T08:05:57.976Z,4.07
2022-09-01T08:12:02.632Z,3.83
2022-09-01T08:18:09.090Z,3.42
2022-09-01T08:24:14.830Z,3.63
2022-09-01T08:30:17.515Z,4.53
2022-09-01T08:36:24.033Z,3.85
2022-09-01T08:42:53.202Z,4.68
2022-09-01T08:55:58.841Z,3.28
2022-09-01T09:02:25.292Z,3.45
2022-09-01T09:08:47.105Z,3.97
2022-09-01T09:15:01.504Z,3.50
2022-09-01T09:21:14.606Z,8.95
2022-09-01T09:27:22.762Z,3.60
2022-09-01T09:33:51.353Z,4.45
2022-09-01T09:40:12.622Z,4.28
2022-09-01T09:46:27.611Z,4.30
2022-09-01T09:52:29.866Z,3.63
2022-09-01T09:58:40.774Z,3.65
2022-09-01T10:04:43.170Z,3.80
2022-09-01T10:10:58.303Z,4.00
2022-09-01T10:17:06.476Z,3.78
2022-09-01T10:23:15.311Z,4.32
2022-09-01T10:29:23.359Z,3.67
2022-09-01T10:35:35.236Z,4.38
2022-09-01T10:41:53.298Z,4.30
2022-09-01T10:48:30.474Z,3.28
2022-09-01T10:54:57.279Z,3.92
2022-09-01T11:01:40.528Z,4.55
2022-09-01T11:07:33.488Z,4.43
2022-09-01T11:13:50.329Z,4.25
2022-09-01T11:20:10.525Z,4.40
2022-09-01T11:26:35.426Z,4.60
2022-09-01T11:32:40.857Z,4.15
2022-09-01T11:38:58.929Z,6.43
2022-09-01T11:45:20.796Z,7.43
2022-09-01T11:51:24.676Z,3.97
2022-09-01T11:57:32.971Z,3.75
2022-09-01T12:03:37.413Z,4.05
2022-09-01T12:09:46.853Z,3.65
2022-09-01T12:16:17.960Z,3.83
2022-09-01T12:22:22.776Z,3.58
2022-09-01T12:28:30.380Z,3.67
2022-09-01T12:34:48.326Z,4.43
2022-09-01T12:40:56.240Z,4.72
2022-09-01T12:47:10.940Z,4.15
2022-09-01T12:53:16.480Z,4.00
2022-09-01T12:59:37.281Z,4.22
2022-09-01T13:05:51.071Z,4.30
2022-09-01T13:12:09.970Z,4.13
2022-09-01T13:18:12.946Z,4.55
2022-09-01T13:24:15.575Z,4.30
2022-09-01T13:30:21.461Z,4.10
2022-09-01T13:42:50.257Z,4.68
2022-09-01T13:55:22.467Z,4.43
2022-09-01T14:01:25.321Z,4.75
2022-09-01T14:07:27.648Z,4.13
2022-09-01T14:13:31.537Z,4.05
2022-09-01T14:19:34.388Z,4.28
2022-09-01T14:25:37.949Z,4.32
2022-09-01T14:31:40.137Z,3.85
2022-09-01T14:37:42.510Z,3.85
2022-09-01T14:43:44.689Z,4.25
2022-09-01T14:49:47.112Z,3.80
2022-09-01T14:55:51.491Z,3.55
2022-09-01T15:01:57.526Z,4.07
2022-09-01T15:08:00.265Z,3.97
2022-09-01T15:14:02.842Z,3.50
2022-09-01T15:20:24.815Z,4.32
2022-09-01T15:26:28.218Z,3.85
2022-09-01T15:32:30.514Z,3.53
2022-09-01T15:38:32.915Z,3.58
2022-09-01T15:44:36.098Z,3.22
2022-09-01T15:50:38.319Z,3.58
2022-09-01T15:56:40.743Z,3.90
2022-09-01T16:02:43.485Z,3.28
2022-09-01T16:08:45.923Z,4.35
2022-09-01T16:14:48.524Z,3.55
2022-09-01T16:20:56.080Z,3.88
2022-09-01T16:26:58.458Z,3.75
2022-09-01T16:33:05.240Z,3.70
2022-09-01T16:39:17.054Z,3.97
2022-09-01T16:45:22.311Z,4.30
2022-09-01T16:51:42.895Z,4.05
2022-09-01T16:58:12.637Z,3.88
2022-09-01T17:04:24.133Z,5.30
2022-09-01T17:10:41.552Z,4.03
2022-09-01T17:16:45.441Z,4.30
2022-09-01T17:22:52.500Z,4.15
2022-09-01T17:29:09.824Z,4.57
2022-09-01T17:35:37.065Z,6.47
2022-09-01T17:41:48.310Z,8.07
2022-09-01T17:48:06.415Z,4.95
2022-09-01T17:54:41.412Z,5.60
2022-09-01T18:00:58.828Z,6.60
2022-09-01T18:07:14.834Z,5.13
2022-09-01T18:13:36.159Z,5.05
2022-09-01T18:19:56.626Z,4.68
2022-09-01T18:26:09.748Z,5.23
2022-09-01T18:32:37.042Z,5.07
2022-09-01T18:38:43.148Z,5.22
2022-09-01T18:45:05.932Z,4.90
2022-09-01T18:51:34.478Z,5.13
2022-09-01T18:57:40.731Z,7.75
2022-09-01T19:03:42.991Z,7.30
2022-09-01T19:16:32.570Z,6.07
2022-09-01T19:22:50.150Z,4.40
2022-09-01T19:29:01.468Z,5.72
2022-09-01T19:35:12.212Z,5.25
2022-09-01T19:41:33.448Z,4.88
2022-09-01T19:47:58.265Z,4.57
2022-09-01T19:54:28.083Z,5.13
2022-09-01T20:01:06.040Z,4.47
2022-09-01T20:07:22.625Z,5.30
2022-09-01T20:13:55.683Z,4.32
2022-09-01T20:20:01.935Z,5.13
2022-09-01T20:26:10.983Z,5.43
2022-09-01T20:32:22.438Z,4.53
2022-09-01T20:38:51.098Z,3.90
2022-09-01T20:44:57.929Z,4.55
2022-09-01T20:51:08.173Z,4.40
2022-09-01T20:57:10.324Z,4.90
2022-09-01T21:03:34.216Z,4.88
2022-09-01T21:09:42.699Z,4.45
2022-09-01T21:15:51.419Z,4.57
2022-09-01T21:22:05.037Z,4.03
2022-09-01T21:28:07.430Z,4.13
2022-09-01T21:34:12.714Z,4.75
2022-09-01T21:40:19.498Z,4.47
2022-09-01T21:46:21.919Z,4.80
2022-09-01T21:52:24.648Z,3.85
2022-09-01T21:58:26.931Z,3.95
2022-09-01T22:10:32.790Z,4.50
2022-09-01T22:16:35.283Z,4.07
2022-09-01T22:22:38.142Z,4.50
2022-09-01T22:28:40.279Z,3.90
2022-09-01T22:34:43.629Z,4.40
2022-09-01T22:40:51.590Z,4.00
2022-09-01T22:46:53.835Z,3.75
2022-09-01T22:52:56.187Z,3.92
2022-09-01T22:59:04.333Z,4.22
2022-09-01T23:05:07.462Z,3.80
2022-09-01T23:11:10.082Z,3.90
2022-09-01T23:17:12.490Z,3.40
2022-09-01T23:23:15.604Z,3.38
2022-09-01T23:29:18.356Z,2.83
2022-09-01T23:35:20.862Z,2.72
2022-09-01T23:41:31.233Z,3.00
2022-09-01T23:47:33.557Z,3.05
2022-09-01T23:59:38.604Z,2.43
